Terminal Aerodrome Forecast
Issued by NWS

Home | Current Version | Previous Version | Text Only | Print | Product List | Glossary On
Versions: 1 2 3 4 5 6 7 8 9 10 11 12 13 14 15
000
FTUS42 KTBW 240810 AAA
TAFLAL
TAF AMD
KLAL 240810Z 2408/2506 01006KT P6SM BKN009
     FM241400 04008KT P6SM SCT020
     FM241900 03006KT P6SM SCT040=

USA.gov is the U.S. government's official web portal to all federal, state and local government web resources and services.